sensor_id;sensor_type;location;lat;lon;timestamp;P1;durP1;ratioP1;P2;durP2;ratioP2
74328;SDS011;62745;51.060;13.786;2023-08-31T00:01:06;4.22;;;2.70;;
74328;SDS011;62745;51.060;13.786;2023-08-31T00:03:31;6.47;;;2.90;;
74328;SDS011;62745;51.060;13.786;2023-08-31T00:05:57;4.22;;;2.40;;
74328;SDS011;62745;51.060;13.786;2023-08-31T00:08:22;4.68;;;3.10;;
74328;SDS011;62745;51.060;13.786;2023-08-31T00:10:54;8.77;;;3.03;;
74328;SDS011;62745;51.060;13.786;2023-08-31T00:13:22;5.63;;;3.22;;
74328;SDS011;62745;51.060;13.786;2023-08-31T00:15:48;5.00;;;2.55;;
74328;SDS011;62745;51.060;13.786;2023-08-31T00:18:13;6.18;;;2.83;;
74328;SDS011;62745;51.060;13.786;2023-08-31T00:20:41;6.13;;;3.17;;
74328;SDS011;62745;51.060;13.786;2023-08-31T00:23:06;4.93;;;3.15;;
74328;SDS011;62745;51.060;13.786;2023-08-31T00:25:32;5.67;;;3.17;;
74328;SDS011;62745;51.060;13.786;2023-08-31T00:27:57;5.63;;;3.40;;
74328;SDS011;62745;51.060;13.786;2023-08-31T00:30:23;5.60;;;2.97;;
74328;SDS011;62745;51.060;13.786;2023-08-31T00:32:53;5.57;;;3.65;;
74328;SDS011;62745;51.060;13.786;2023-08-31T00:35:18;4.70;;;3.40;;
74328;SDS011;62745;51.060;13.786;2023-08-31T00:37:43;5.10;;;2.93;;
74328;SDS011;62745;51.060;13.786;2023-08-31T00:40:09;5.47;;;2.77;;
74328;SDS011;62745;51.060;13.786;2023-08-31T00:42:36;5.53;;;2.88;;
74328;SDS011;62745;51.060;13.786;2023-08-31T00:45:02;6.18;;;3.30;;
74328;SDS011;62745;51.060;13.786;2023-08-31T00:47:28;5.70;;;2.90;;
74328;SDS011;62745;51.060;13.786;2023-08-31T00:49:53;4.50;;;2.17;;
74328;SDS011;62745;51.060;13.786;2023-08-31T00:52:19;5.10;;;2.85;;
74328;SDS011;62745;51.060;13.786;2023-08-31T00:54:46;5.53;;;2.85;;
74328;SDS011;62745;51.060;13.786;2023-08-31T00:57:12;4.85;;;3.03;;
74328;SDS011;62745;51.060;13.786;2023-08-31T00:59:37;5.10;;;3.10;;
74328;SDS011;62745;51.060;13.786;2023-08-31T01:02:04;4.30;;;2.50;;
74328;SDS011;62745;51.060;13.786;2023-08-31T01:04:41;4.85;;;2.55;;
74328;SDS011;62745;51.060;13.786;2023-08-31T01:09:55;5.05;;;2.70;;
74328;SDS011;62745;51.060;13.786;2023-08-31T01:12:34;4.50;;;2.40;;
74328;SDS011;62745;51.060;13.786;2023-08-31T01:15:05;4.72;;;2.58;;
74328;SDS011;62745;51.060;13.786;2023-08-31T01:17:48;5.47;;;2.35;;
74328;SDS011;62745;51.060;13.786;2023-08-31T01:20:17;4.57;;;2.47;;
74328;SDS011;62745;51.060;13.786;2023-08-31T01:25:20;3.90;;;2.17;;
74328;SDS011;62745;51.060;13.786;2023-08-31T01:27:46;4.18;;;2.20;;
74328;SDS011;62745;51.060;13.786;2023-08-31T01:30:12;3.20;;;1.80;;
74328;SDS011;62745;51.060;13.786;2023-08-31T01:32:37;4.10;;;2.00;;
74328;SDS011;62745;51.060;13.786;2023-08-31T01:35:10;4.68;;;2.22;;
74328;SDS011;62745;51.060;13.786;2023-08-31T01:40:32;3.20;;;1.50;;
74328;SDS011;62745;51.060;13.786;2023-08-31T01:43:01;4.82;;;2.00;;
74328;SDS011;62745;51.060;13.786;2023-08-31T01:45:28;4.15;;;2.10;;
74328;SDS011;62745;51.060;13.786;2023-08-31T01:47:55;4.15;;;1.70;;
74328;SDS011;62745;51.060;13.786;2023-08-31T01:50:21;3.20;;;1.70;;
74328;SDS011;62745;51.060;13.786;2023-08-31T01:52:46;3.33;;;1.70;;
74328;SDS011;62745;51.060;13.786;2023-08-31T01:55:12;3.20;;;1.30;;
74328;SDS011;62745;51.060;13.786;2023-08-31T01:57:40;3.70;;;1.48;;
74328;SDS011;62745;51.060;13.786;2023-08-31T02:00:06;3.40;;;1.63;;
74328;SDS011;62745;51.060;13.786;2023-08-31T02:02:34;4.90;;;1.65;;
74328;SDS011;62745;51.060;13.786;2023-08-31T02:05:00;3.55;;;1.30;;
74328;SDS011;62745;51.060;13.786;2023-08-31T02:07:26;3.03;;;1.40;;
74328;SDS011;62745;51.060;13.786;2023-08-31T02:09:52;3.03;;;1.42;;
74328;SDS011;62745;51.060;13.786;2023-08-31T02:12:17;2.83;;;1.20;;
74328;SDS011;62745;51.060;13.786;2023-08-31T02:14:42;2.60;;;1.30;;
74328;SDS011;62745;51.060;13.786;2023-08-31T02:17:08;3.80;;;1.30;;
74328;SDS011;62745;51.060;13.786;2023-08-31T02:19:33;2.63;;;1.33;;
74328;SDS011;62745;51.060;13.786;2023-08-31T02:21:59;3.13;;;1.37;;
74328;SDS011;62745;51.060;13.786;2023-08-31T02:24:24;3.00;;;1.30;;
74328;SDS011;62745;51.060;13.786;2023-08-31T02:26:50;3.08;;;1.27;;
74328;SDS011;62745;51.060;13.786;2023-08-31T02:29:15;3.05;;;1.33;;
74328;SDS011;62745;51.060;13.786;2023-08-31T02:31:40;2.53;;;1.20;;
74328;SDS011;62745;51.060;13.786;2023-08-31T02:34:06;4.35;;;1.50;;
74328;SDS011;62745;51.060;13.786;2023-08-31T02:36:32;2.65;;;1.30;;
74328;SDS011;62745;51.060;13.786;2023-08-31T02:41:22;3.80;;;1.30;;
74328;SDS011;62745;51.060;13.786;2023-08-31T04:38:52;2.85;;;1.20;;
74328;SDS011;62745;51.060;13.786;2023-08-31T04:41:25;2.83;;;1.40;;
74328;SDS011;62745;51.060;13.786;2023-08-31T04:43:50;2.90;;;1.20;;
74328;SDS011;62745;51.060;13.786;2023-08-31T04:46:16;3.63;;;1.70;;
74328;SDS011;62745;51.060;13.786;2023-08-31T04:48:42;3.45;;;1.73;;
74328;SDS011;62745;51.060;13.786;2023-08-31T04:51:09;3.50;;;1.63;;
74328;SDS011;62745;51.060;13.786;2023-08-31T04:53:54;4.43;;;1.67;;
74328;SDS011;62745;51.060;13.786;2023-08-31T04:56:19;3.45;;;1.60;;
74328;SDS011;62745;51.060;13.786;2023-08-31T04:58:45;3.22;;;1.45;;
74328;SDS011;62745;51.060;13.786;2023-08-31T05:01:11;4.15;;;1.58;;
74328;SDS011;62745;51.060;13.786;2023-08-31T05:03:36;4.00;;;1.80;;
74328;SDS011;62745;51.060;13.786;2023-08-31T05:06:04;4.07;;;1.77;;
74328;SDS011;62745;51.060;13.786;2023-08-31T05:08:46;4.07;;;1.73;;
74328;SDS011;62745;51.060;13.786;2023-08-31T05:11:12;3.53;;;1.83;;
74328;SDS011;62745;51.060;13.786;2023-08-31T05:13:38;3.47;;;1.80;;
74328;SDS011;62745;51.060;13.786;2023-08-31T05:16:03;5.53;;;2.08;;
74328;SDS011;62745;51.060;13.786;2023-08-31T05:18:28;5.90;;;2.05;;
74328;SDS011;62745;51.060;13.786;2023-08-31T05:20:54;4.00;;;1.53;;
74328;SDS011;62745;51.060;13.786;2023-08-31T05:23:19;4.10;;;1.50;;
74328;SDS011;62745;51.060;13.786;2023-08-31T05:25:45;5.43;;;1.80;;
74328;SDS011;62745;51.060;13.786;2023-08-31T05:28:10;4.45;;;1.80;;
74328;SDS011;62745;51.060;13.786;2023-08-31T05:30:36;4.20;;;2.15;;
74328;SDS011;62745;51.060;13.786;2023-08-31T05:33:01;4.60;;;1.90;;
74328;SDS011;62745;51.060;13.786;2023-08-31T05:35:27;3.70;;;1.85;;
74328;SDS011;62745;51.060;13.786;2023-08-31T05:37:52;6.13;;;2.40;;
74328;SDS011;62745;51.060;13.786;2023-08-31T05:40:17;5.03;;;1.90;;
74328;SDS011;62745;51.060;13.786;2023-08-31T05:42:43;4.38;;;1.85;;
74328;SDS011;62745;51.060;13.786;2023-08-31T05:45:08;4.78;;;1.80;;
74328;SDS011;62745;51.060;13.786;2023-08-31T05:47:34;5.57;;;2.17;;
74328;SDS011;62745;51.060;13.786;2023-08-31T05:50:00;3.88;;;2.10;;
74328;SDS011;62745;51.060;13.786;2023-08-31T05:52:26;5.40;;;2.35;;
74328;SDS011;62745;51.060;13.786;2023-08-31T05:54:52;5.50;;;2.20;;
74328;SDS011;62745;51.060;13.786;2023-08-31T05:57:20;3.30;;;1.80;;
74328;SDS011;62745;51.060;13.786;2023-08-31T05:59:47;5.63;;;2.22;;
74328;SDS011;62745;51.060;13.786;2023-08-31T06:02:13;4.28;;;2.20;;
74328;SDS011;62745;51.060;13.786;2023-08-31T06:04:38;4.80;;;2.03;;
74328;SDS011;62745;51.060;13.786;2023-08-31T06:07:03;5.40;;;2.17;;
74328;SDS011;62745;51.060;13.786;2023-08-31T06:09:29;4.22;;;2.20;;
74328;SDS011;62745;51.060;13.786;2023-08-31T06:11:54;4.40;;;2.00;;
74328;SDS011;62745;51.060;13.786;2023-08-31T06:14:19;4.57;;;1.97;;
74328;SDS011;62745;51.060;13.786;2023-08-31T06:16:45;4.22;;;2.03;;
74328;SDS011;62745;51.060;13.786;2023-08-31T06:19:10;4.87;;;2.13;;
74328;SDS011;62745;51.060;13.786;2023-08-31T06:21:35;3.57;;;1.90;;
74328;SDS011;62745;51.060;13.786;2023-08-31T06:24:00;4.77;;;1.97;;
74328;SDS011;62745;51.060;13.786;2023-08-31T06:26:26;4.85;;;2.25;;
74328;SDS011;62745;51.060;13.786;2023-08-31T06:28:51;4.60;;;1.97;;
74328;SDS011;62745;51.060;13.786;2023-08-31T06:31:16;5.67;;;1.83;;
74328;SDS011;62745;51.060;13.786;2023-08-31T06:33:42;3.87;;;2.00;;
74328;SDS011;62745;51.060;13.786;2023-08-31T06:36:07;5.97;;;2.43;;
74328;SDS011;62745;51.060;13.786;2023-08-31T06:38:32;3.40;;;1.67;;
74328;SDS011;62745;51.060;13.786;2023-08-31T06:40:58;4.43;;;2.13;;
74328;SDS011;62745;51.060;13.786;2023-08-31T06:43:24;5.63;;;1.90;;
74328;SDS011;62745;51.060;13.786;2023-08-31T06:45:51;5.38;;;2.13;;
74328;SDS011;62745;51.060;13.786;2023-08-31T06:48:17;3.95;;;1.98;;
74328;SDS011;62745;51.060;13.786;2023-08-31T06:50:42;4.80;;;2.40;;
74328;SDS011;62745;51.060;13.786;2023-08-31T06:53:08;6.07;;;2.13;;
74328;SDS011;62745;51.060;13.786;2023-08-31T06:55:33;5.00;;;2.40;;
74328;SDS011;62745;51.060;13.786;2023-08-31T06:57:58;5.35;;;2.17;;
74328;SDS011;62745;51.060;13.786;2023-08-31T07:00:24;7.18;;;2.20;;
74328;SDS011;62745;51.060;13.786;2023-08-31T07:02:50;4.78;;;2.30;;
74328;SDS011;62745;51.060;13.786;2023-08-31T07:05:15;5.53;;;2.43;;
74328;SDS011;62745;51.060;13.786;2023-08-31T07:07:40;6.03;;;2.70;;
74328;SDS011;62745;51.060;13.786;2023-08-31T07:10:06;5.80;;;2.20;;
74328;SDS011;62745;51.060;13.786;2023-08-31T07:12:32;4.40;;;2.33;;
74328;SDS011;62745;51.060;13.786;2023-08-31T07:14:57;6.33;;;2.10;;
74328;SDS011;62745;51.060;13.786;2023-08-31T07:17:22;6.60;;;2.50;;
74328;SDS011;62745;51.060;13.786;2023-08-31T07:19:47;5.77;;;2.37;;
74328;SDS011;62745;51.060;13.786;2023-08-31T07:22:13;5.85;;;2.25;;
74328;SDS011;62745;51.060;13.786;2023-08-31T07:24:38;4.43;;;1.97;;
74328;SDS011;62745;51.060;13.786;2023-08-31T07:27:04;4.07;;;2.30;;
74328;SDS011;62745;51.060;13.786;2023-08-31T07:29:30;4.35;;;2.03;;
74328;SDS011;62745;51.060;13.786;2023-08-31T07:31:56;7.07;;;2.45;;
74328;SDS011;62745;51.060;13.786;2023-08-31T07:34:21;5.30;;;1.98;;
74328;SDS011;62745;51.060;13.786;2023-08-31T07:36:47;4.37;;;2.00;;
74328;SDS011;62745;51.060;13.786;2023-08-31T07:39:12;4.83;;;1.90;;
74328;SDS011;62745;51.060;13.786;2023-08-31T07:41:37;3.80;;;1.73;;
74328;SDS011;62745;51.060;13.786;2023-08-31T07:44:02;5.97;;;2.10;;
74328;SDS011;62745;51.060;13.786;2023-08-31T07:46:28;4.82;;;2.30;;
74328;SDS011;62745;51.060;13.786;2023-08-31T07:48:53;6.38;;;2.50;;
74328;SDS011;62745;51.060;13.786;2023-08-31T07:51:19;3.92;;;2.15;;
74328;SDS011;62745;51.060;13.786;2023-08-31T07:53:48;4.85;;;2.10;;
74328;SDS011;62745;51.060;13.786;2023-08-31T07:56:15;4.05;;;2.10;;
74328;SDS011;62745;51.060;13.786;2023-08-31T07:58:40;4.80;;;2.17;;
74328;SDS011;62745;51.060;13.786;2023-08-31T08:01:05;3.77;;;1.80;;
74328;SDS011;62745;51.060;13.786;2023-08-31T08:03:31;4.20;;;1.90;;
74328;SDS011;62745;51.060;13.786;2023-08-31T08:05:56;4.60;;;1.87;;
74328;SDS011;62745;51.060;13.786;2023-08-31T08:08:21;4.57;;;2.03;;
74328;SDS011;62745;51.060;13.786;2023-08-31T08:10:51;3.30;;;1.58;;
74328;SDS011;62745;51.060;13.786;2023-08-31T08:13:17;5.20;;;1.70;;
74328;SDS011;62745;51.060;13.786;2023-08-31T08:15:42;6.37;;;1.73;;
74328;SDS011;62745;51.060;13.786;2023-08-31T08:18:08;4.30;;;1.80;;
74328;SDS011;62745;51.060;13.786;2023-08-31T08:20:33;3.72;;;1.55;;
74328;SDS011;62745;51.060;13.786;2023-08-31T08:22:58;5.22;;;2.67;;
74328;SDS011;62745;51.060;13.786;2023-08-31T08:25:24;4.78;;;1.65;;
74328;SDS011;62745;51.060;13.786;2023-08-31T08:27:49;6.10;;;1.70;;
74328;SDS011;62745;51.060;13.786;2023-08-31T08:30:15;4.57;;;1.83;;
74328;SDS011;62745;51.060;13.786;2023-08-31T08:32:40;6.50;;;1.90;;
74328;SDS011;62745;51.060;13.786;2023-08-31T08:35:06;4.68;;;1.77;;
74328;SDS011;62745;51.060;13.786;2023-08-31T08:37:32;5.60;;;2.10;;
74328;SDS011;62745;51.060;13.786;2023-08-31T08:42:25;4.93;;;1.85;;
74328;SDS011;62745;51.060;13.786;2023-08-31T08:44:51;4.15;;;1.73;;
74328;SDS011;62745;51.060;13.786;2023-08-31T08:47:17;6.82;;;1.90;;
74328;SDS011;62745;51.060;13.786;2023-08-31T08:49:42;4.55;;;1.73;;
74328;SDS011;62745;51.060;13.786;2023-08-31T08:52:09;3.40;;;1.80;;
74328;SDS011;62745;51.060;13.786;2023-08-31T08:54:35;4.35;;;1.80;;
74328;SDS011;62745;51.060;13.786;2023-08-31T08:57:00;5.88;;;1.55;;
74328;SDS011;62745;51.060;13.786;2023-08-31T08:59:26;6.18;;;1.63;;
74328;SDS011;62745;51.060;13.786;2023-08-31T09:01:52;4.32;;;2.10;;
74328;SDS011;62745;51.060;13.786;2023-08-31T09:04:18;3.70;;;1.80;;
74328;SDS011;62745;51.060;13.786;2023-08-31T09:06:44;3.88;;;1.60;;
74328;SDS011;62745;51.060;13.786;2023-08-31T09:09:09;2.67;;;1.40;;
74328;SDS011;62745;51.060;13.786;2023-08-31T09:11:35;4.03;;;1.80;;
74328;SDS011;62745;51.060;13.786;2023-08-31T09:14:13;5.23;;;1.70;;
74328;SDS011;62745;51.060;13.786;2023-08-31T09:16:39;3.42;;;1.65;;
74328;SDS011;62745;51.060;13.786;2023-08-31T09:19:06;4.17;;;1.40;;
74328;SDS011;62745;51.060;13.786;2023-08-31T09:21:43;4.05;;;1.40;;
74328;SDS011;62745;51.060;13.786;2023-08-31T09:24:10;4.25;;;1.80;;
74328;SDS011;62745;51.060;13.786;2023-08-31T09:26:38;3.08;;;1.38;;
74328;SDS011;62745;51.060;13.786;2023-08-31T09:29:07;4.35;;;1.70;;
74328;SDS011;62745;51.060;13.786;2023-08-31T09:31:32;4.88;;;1.70;;
74328;SDS011;62745;51.060;13.786;2023-08-31T09:33:58;3.53;;;1.60;;
74328;SDS011;62745;51.060;13.786;2023-08-31T09:36:23;5.00;;;1.58;;
74328;SDS011;62745;51.060;13.786;2023-08-31T09:38:49;3.58;;;1.55;;
74328;SDS011;62745;51.060;13.786;2023-08-31T09:41:14;2.83;;;1.45;;
74328;SDS011;62745;51.060;13.786;2023-08-31T09:43:40;4.05;;;1.58;;
74328;SDS011;62745;51.060;13.786;2023-08-31T09:46:06;5.55;;;1.80;;
74328;SDS011;62745;51.060;13.786;2023-08-31T09:48:33;3.05;;;1.40;;
74328;SDS011;62745;51.060;13.786;2023-08-31T09:51:02;5.15;;;1.58;;
74328;SDS011;62745;51.060;13.786;2023-08-31T09:53:29;3.33;;;1.60;;
74328;SDS011;62745;51.060;13.786;2023-08-31T09:55:56;4.35;;;1.67;;
74328;SDS011;62745;51.060;13.786;2023-08-31T09:58:22;4.47;;;1.70;;
74328;SDS011;62745;51.060;13.786;2023-08-31T10:00:51;6.63;;;2.00;;
74328;SDS011;62745;51.060;13.786;2023-08-31T10:03:17;3.53;;;1.75;;
74328;SDS011;62745;51.060;13.786;2023-08-31T10:05:45;4.13;;;1.90;;
74328;SDS011;62745;51.060;13.786;2023-08-31T10:08:15;4.53;;;1.67;;
74328;SDS011;62745;51.060;13.786;2023-08-31T10:10:40;4.32;;;1.92;;
74328;SDS011;62745;51.060;13.786;2023-08-31T10:13:06;4.70;;;1.73;;
74328;SDS011;62745;51.060;13.786;2023-08-31T10:15:32;5.32;;;1.55;;
74328;SDS011;62745;51.060;13.786;2023-08-31T10:17:59;4.97;;;1.70;;
74328;SDS011;62745;51.060;13.786;2023-08-31T10:20:26;9.45;;;1.75;;
74328;SDS011;62745;51.060;13.786;2023-08-31T10:22:56;5.05;;;1.80;;
74328;SDS011;62745;51.060;13.786;2023-08-31T10:25:22;4.53;;;1.58;;
74328;SDS011;62745;51.060;13.786;2023-08-31T10:27:48;3.55;;;1.50;;
74328;SDS011;62745;51.060;13.786;2023-08-31T10:35:41;4.85;;;1.80;;
74328;SDS011;62745;51.060;13.786;2023-08-31T10:38:15;4.22;;;1.42;;
74328;SDS011;62745;51.060;13.786;2023-08-31T10:41:00;4.40;;;1.55;;
74328;SDS011;62745;51.060;13.786;2023-08-31T10:48:53;3.63;;;1.42;;
74328;SDS011;62745;51.060;13.786;2023-08-31T10:51:25;3.53;;;1.35;;
74328;SDS011;62745;51.060;13.786;2023-08-31T10:54:10;2.78;;;1.20;;
74328;SDS011;62745;51.060;13.786;2023-08-31T10:56:42;3.70;;;1.23;;
74328;SDS011;62745;51.060;13.786;2023-08-31T10:59:16;3.67;;;1.40;;
74328;SDS011;62745;51.060;13.786;2023-08-31T11:02:00;3.23;;;1.20;;
74328;SDS011;62745;51.060;13.786;2023-08-31T11:04:28;2.63;;;1.35;;
74328;SDS011;62745;51.060;13.786;2023-08-31T11:07:13;2.83;;;1.33;;
74328;SDS011;62745;51.060;13.786;2023-08-31T11:09:40;3.38;;;1.08;;
74328;SDS011;62745;51.060;13.786;2023-08-31T11:12:06;2.55;;;1.20;;
74328;SDS011;62745;51.060;13.786;2023-08-31T11:14:32;3.53;;;1.30;;
74328;SDS011;62745;51.060;13.786;2023-08-31T11:16:57;4.00;;;1.15;;
74328;SDS011;62745;51.060;13.786;2023-08-31T11:19:24;5.72;;;1.40;;
74328;SDS011;62745;51.060;13.786;2023-08-31T11:21:50;2.42;;;1.00;;
74328;SDS011;62745;51.060;13.786;2023-08-31T11:24:16;2.28;;;1.10;;
74328;SDS011;62745;51.060;13.786;2023-08-31T11:26:42;3.28;;;1.00;;
74328;SDS011;62745;51.060;13.786;2023-08-31T11:29:07;4.95;;;1.20;;
74328;SDS011;62745;51.060;13.786;2023-08-31T11:31:37;2.60;;;1.10;;
74328;SDS011;62745;51.060;13.786;2023-08-31T11:34:06;3.08;;;1.00;;
74328;SDS011;62745;51.060;13.786;2023-08-31T11:36:36;4.95;;;1.00;;
74328;SDS011;62745;51.060;13.786;2023-08-31T11:39:02;3.90;;;1.20;;
74328;SDS011;62745;51.060;13.786;2023-08-31T11:41:35;2.72;;;1.30;;
74328;SDS011;62745;51.060;13.786;2023-08-31T11:44:03;2.40;;;0.95;;
74328;SDS011;62745;51.060;13.786;2023-08-31T11:46:29;2.85;;;1.20;;
74328;SDS011;62745;51.060;13.786;2023-08-31T11:48:55;2.42;;;1.00;;
74328;SDS011;62745;51.060;13.786;2023-08-31T11:51:21;2.90;;;1.17;;
74328;SDS011;62745;51.060;13.786;2023-08-31T11:53:47;4.05;;;1.90;;
74328;SDS011;62745;51.060;13.786;2023-08-31T11:56:13;3.58;;;1.50;;
74328;SDS011;62745;51.060;13.786;2023-08-31T11:58:41;5.00;;;0.80;;
74328;SDS011;62745;51.060;13.786;2023-08-31T12:01:07;7.20;;;1.52;;
74328;SDS011;62745;51.060;13.786;2023-08-31T12:03:41;2.00;;;1.00;;
74328;SDS011;62745;51.060;13.786;2023-08-31T12:06:09;2.42;;;1.10;;
74328;SDS011;62745;51.060;13.786;2023-08-31T12:08:34;3.78;;;1.05;;
74328;SDS011;62745;51.060;13.786;2023-08-31T12:11:01;3.95;;;0.95;;
74328;SDS011;62745;51.060;13.786;2023-08-31T12:13:27;2.30;;;1.00;;
74328;SDS011;62745;51.060;13.786;2023-08-31T12:15:54;4.30;;;1.30;;
74328;SDS011;62745;51.060;13.786;2023-08-31T12:18:19;2.83;;;1.10;;
74328;SDS011;62745;51.060;13.786;2023-08-31T12:20:51;2.00;;;1.17;;
74328;SDS011;62745;51.060;13.786;2023-08-31T12:23:17;2.85;;;1.20;;
74328;SDS011;62745;51.060;13.786;2023-08-31T12:25:53;3.25;;;1.10;;
74328;SDS011;62745;51.060;13.786;2023-08-31T12:28:20;4.25;;;1.10;;
74328;SDS011;62745;51.060;13.786;2023-08-31T12:30:51;2.17;;;1.00;;
74328;SDS011;62745;51.060;13.786;2023-08-31T12:33:17;3.38;;;1.20;;
74328;SDS011;62745;51.060;13.786;2023-08-31T12:35:43;3.28;;;1.00;;
74328;SDS011;62745;51.060;13.786;2023-08-31T12:38:09;2.95;;;1.05;;
74328;SDS011;62745;51.060;13.786;2023-08-31T12:40:35;3.58;;;1.17;;
74328;SDS011;62745;51.060;13.786;2023-08-31T12:43:01;3.90;;;1.10;;
74328;SDS011;62745;51.060;13.786;2023-08-31T12:45:27;2.95;;;0.98;;
74328;SDS011;62745;51.060;13.786;2023-08-31T12:47:52;2.42;;;1.00;;
74328;SDS011;62745;51.060;13.786;2023-08-31T12:50:17;2.57;;;1.20;;
74328;SDS011;62745;51.060;13.786;2023-08-31T12:52:43;3.93;;;1.00;;
74328;SDS011;62745;51.060;13.786;2023-08-31T12:55:14;3.13;;;1.08;;
74328;SDS011;62745;51.060;13.786;2023-08-31T12:57:39;1.77;;;0.90;;
74328;SDS011;62745;51.060;13.786;2023-08-31T13:00:06;3.13;;;1.10;;
74328;SDS011;62745;51.060;13.786;2023-08-31T13:02:42;4.63;;;1.33;;
74328;SDS011;62745;51.060;13.786;2023-08-31T13:05:08;4.25;;;1.00;;
74328;SDS011;62745;51.060;13.786;2023-08-31T13:07:35;2.85;;;1.17;;
74328;SDS011;62745;51.060;13.786;2023-08-31T13:10:04;4.50;;;1.40;;
74328;SDS011;62745;51.060;13.786;2023-08-31T13:12:30;2.70;;;1.05;;
74328;SDS011;62745;51.060;13.786;2023-08-31T13:14:57;3.17;;;1.23;;
74328;SDS011;62745;51.060;13.786;2023-08-31T13:17:23;3.10;;;1.23;;
74328;SDS011;62745;51.060;13.786;2023-08-31T13:19:52;3.25;;;1.25;;
74328;SDS011;62745;51.060;13.786;2023-08-31T13:22:18;4.55;;;1.40;;
74328;SDS011;62745;51.060;13.786;2023-08-31T13:24:43;2.83;;;1.30;;
74328;SDS011;62745;51.060;13.786;2023-08-31T13:27:08;3.60;;;1.17;;
74328;SDS011;62745;51.060;13.786;2023-08-31T13:29:33;2.90;;;1.20;;
74328;SDS011;62745;51.060;13.786;2023-08-31T13:31:59;4.40;;;1.00;;
74328;SDS011;62745;51.060;13.786;2023-08-31T13:34:24;3.93;;;1.20;;
74328;SDS011;62745;51.060;13.786;2023-08-31T13:36:49;2.67;;;1.20;;
74328;SDS011;62745;51.060;13.786;2023-08-31T13:39:14;3.00;;;1.33;;
74328;SDS011;62745;51.060;13.786;2023-08-31T13:41:41;2.50;;;1.05;;
74328;SDS011;62745;51.060;13.786;2023-08-31T13:44:06;2.55;;;1.05;;
74328;SDS011;62745;51.060;13.786;2023-08-31T13:46:32;4.27;;;1.20;;
74328;SDS011;62745;51.060;13.786;2023-08-31T13:48:57;3.47;;;1.30;;
74328;SDS011;62745;51.060;13.786;2023-08-31T13:51:22;4.17;;;1.33;;
74328;SDS011;62745;51.060;13.786;2023-08-31T13:53:47;2.70;;;1.20;;
74328;SDS011;62745;51.060;13.786;2023-08-31T13:56:13;2.63;;;1.30;;
74328;SDS011;62745;51.060;13.786;2023-08-31T13:58:38;3.58;;;1.13;;
74328;SDS011;62745;51.060;13.786;2023-08-31T14:01:03;2.77;;;1.20;;
74328;SDS011;62745;51.060;13.786;2023-08-31T14:03:30;2.13;;;1.10;;
74328;SDS011;62745;51.060;13.786;2023-08-31T14:05:55;2.78;;;1.15;;
74328;SDS011;62745;51.060;13.786;2023-08-31T14:08:20;4.40;;;1.20;;
74328;SDS011;62745;51.060;13.786;2023-08-31T14:10:45;2.88;;;1.25;;
74328;SDS011;62745;51.060;13.786;2023-08-31T14:13:11;4.25;;;1.35;;
74328;SDS011;62745;51.060;13.786;2023-08-31T14:15:36;2.67;;;1.20;;
74328;SDS011;62745;51.060;13.786;2023-08-31T14:18:04;3.55;;;1.30;;
74328;SDS011;62745;51.060;13.786;2023-08-31T14:20:30;2.72;;;1.20;;
74328;SDS011;62745;51.060;13.786;2023-08-31T14:22:55;3.97;;;1.30;;
74328;SDS011;62745;51.060;13.786;2023-08-31T14:25:20;2.87;;;1.20;;
74328;SDS011;62745;51.060;13.786;2023-08-31T14:27:49;2.80;;;1.40;;
74328;SDS011;62745;51.060;13.786;2023-08-31T14:30:14;3.30;;;1.13;;
74328;SDS011;62745;51.060;13.786;2023-08-31T14:32:39;4.33;;;1.67;;
74328;SDS011;62745;51.060;13.786;2023-08-31T14:35:05;3.50;;;1.47;;
74328;SDS011;62745;51.060;13.786;2023-08-31T14:37:31;3.53;;;1.40;;
74328;SDS011;62745;51.060;13.786;2023-08-31T14:39:56;2.53;;;1.30;;
74328;SDS011;62745;51.060;13.786;2023-08-31T14:42:22;3.20;;;1.35;;
74328;SDS011;62745;51.060;13.786;2023-08-31T14:44:54;3.13;;;1.20;;
74328;SDS011;62745;51.060;13.786;2023-08-31T14:47:30;3.33;;;1.40;;
74328;SDS011;62745;51.060;13.786;2023-08-31T14:49:56;2.95;;;1.23;;
74328;SDS011;62745;51.060;13.786;2023-08-31T14:52:21;3.42;;;1.27;;
74328;SDS011;62745;51.060;13.786;2023-08-31T14:54:47;3.70;;;1.20;;
74328;SDS011;62745;51.060;13.786;2023-08-31T14:57:13;3.80;;;1.23;;
74328;SDS011;62745;51.060;13.786;2023-08-31T14:59:38;3.05;;;1.08;;
74328;SDS011;62745;51.060;13.786;2023-08-31T15:02:04;3.42;;;1.17;;
74328;SDS011;62745;51.060;13.786;2023-08-31T15:04:32;3.08;;;1.33;;
74328;SDS011;62745;51.060;13.786;2023-08-31T15:06:57;3.38;;;1.30;;
74328;SDS011;62745;51.060;13.786;2023-08-31T15:09:23;2.78;;;1.23;;
74328;SDS011;62745;51.060;13.786;2023-08-31T15:11:48;2.53;;;1.20;;
74328;SDS011;62745;51.060;13.786;2023-08-31T15:14:14;2.90;;;1.20;;
74328;SDS011;62745;51.060;13.786;2023-08-31T15:16:39;4.65;;;1.10;;
74328;SDS011;62745;51.060;13.786;2023-08-31T15:19:05;2.83;;;1.15;;
74328;SDS011;62745;51.060;13.786;2023-08-31T15:21:31;3.95;;;1.20;;
74328;SDS011;62745;51.060;13.786;2023-08-31T15:23:57;2.67;;;1.10;;
74328;SDS011;62745;51.060;13.786;2023-08-31T15:26:22;3.42;;;1.20;;
74328;SDS011;62745;51.060;13.786;2023-08-31T15:28:47;2.92;;;1.00;;
74328;SDS011;62745;51.060;13.786;2023-08-31T15:31:13;2.97;;;1.13;;
74328;SDS011;62745;51.060;13.786;2023-08-31T15:33:38;3.70;;;1.10;;
74328;SDS011;62745;51.060;13.786;2023-08-31T15:36:04;3.92;;;1.27;;
74328;SDS011;62745;51.060;13.786;2023-08-31T15:38:31;2.60;;;1.10;;
74328;SDS011;62745;51.060;13.786;2023-08-31T15:40:57;2.58;;;1.00;;
74328;SDS011;62745;51.060;13.786;2023-08-31T15:43:23;4.47;;;1.10;;
74328;SDS011;62745;51.060;13.786;2023-08-31T15:45:48;3.05;;;1.30;;
74328;SDS011;62745;51.060;13.786;2023-08-31T15:48:14;2.50;;;0.98;;
74328;SDS011;62745;51.060;13.786;2023-08-31T15:50:39;2.90;;;1.27;;
74328;SDS011;62745;51.060;13.786;2023-08-31T15:53:05;3.78;;;1.10;;
74328;SDS011;62745;51.060;13.786;2023-08-31T15:55:30;5.97;;;1.40;;
74328;SDS011;62745;51.060;13.786;2023-08-31T15:57:56;4.07;;;1.50;;
74328;SDS011;62745;51.060;13.786;2023-08-31T16:00:21;4.95;;;1.20;;
74328;SDS011;62745;51.060;13.786;2023-08-31T16:02:48;5.55;;;1.70;;
74328;SDS011;62745;51.060;13.786;2023-08-31T16:05:13;3.70;;;1.30;;
74328;SDS011;62745;51.060;13.786;2023-08-31T16:07:39;3.58;;;1.13;;
74328;SDS011;62745;51.060;13.786;2023-08-31T16:10:05;5.63;;;1.38;;
74328;SDS011;62745;51.060;13.786;2023-08-31T16:12:32;4.20;;;1.80;;
74328;SDS011;62745;51.060;13.786;2023-08-31T16:14:57;3.42;;;1.58;;
74328;SDS011;62745;51.060;13.786;2023-08-31T16:17:22;4.75;;;1.80;;
74328;SDS011;62745;51.060;13.786;2023-08-31T16:19:48;4.93;;;1.75;;
74328;SDS011;62745;51.060;13.786;2023-08-31T16:22:14;9.55;;;1.55;;
74328;SDS011;62745;51.060;13.786;2023-08-31T16:24:40;3.72;;;1.52;;
74328;SDS011;62745;51.060;13.786;2023-08-31T16:27:05;3.30;;;1.50;;
74328;SDS011;62745;51.060;13.786;2023-08-31T16:29:31;4.95;;;1.40;;
74328;SDS011;62745;51.060;13.786;2023-08-31T16:31:56;4.27;;;1.50;;
74328;SDS011;62745;51.060;13.786;2023-08-31T16:34:21;5.17;;;1.57;;
74328;SDS011;62745;51.060;13.786;2023-08-31T16:36:46;5.13;;;1.70;;
74328;SDS011;62745;51.060;13.786;2023-08-31T16:39:12;6.80;;;1.50;;
74328;SDS011;62745;51.060;13.786;2023-08-31T16:41:37;5.22;;;1.80;;
74328;SDS011;62745;51.060;13.786;2023-08-31T16:44:04;3.83;;;1.48;;
74328;SDS011;62745;51.060;13.786;2023-08-31T16:46:30;3.72;;;1.40;;
74328;SDS011;62745;51.060;13.786;2023-08-31T16:48:55;4.13;;;1.60;;